This demonstration page uses our WeatherBlox Daily Observations layout. Learn more.

41.55636, -103.73856

Hourly Observations for August 31, 2018

Temp ( °F °C ) Dew Point ( °F °C ) Humidity (%) Winds ( mph kmh ) Pressure ( in mb ) Visibility ( mi km ) Precip ( " mm )
12:58 am 00:58 Cloudy 77 24.8 32 -0.2 19 19 WSW 13 20 29.83 1010 10 16.09344 0 0
1:58 am 01:58 Mostly Cloudy 76 24.7 31 -0.3 19 19 SW 18 30 29.77 1008 10 16.09344 0 0
2:58 am 02:58 Mostly Cloudy 75 23.7 31 -0.4 20 20 WSW 7 11 29.77 1008 10 16.09344 0 0
3:58 am 03:58 Mostly Clear 68 20.2 34 0.9 28 28 SW 12 19 29.77 1008 10 16.09344 0 0
4:58 am 04:58 Clear 64 18 35 1.8 34 34 W 9 15 29.8 1009 10 16.09344 0 0
5:58 am 05:58 Partly Cloudy 62 16.6 36 2.1 38 38 WNW 9 15 29.8 1009 10 16.09344 0 0
6:58 am 06:58 Mostly Sunny 62 16.4 38 3.5 42 42 W 8 13 29.83 1010 10 16.09344 0 0
7:58 am 07:58 Sunny 74 23.6 41 5.2 30 30 W 8 13 29.8 1009 10 16.09344 0 0
8:58 am 08:58 Sunny 77 25.1 38 3.3 24 24 WNW 12 19 29.8 1009 10 16.09344 0 0
9:58 am 09:58 Sunny 82 27.5 31 -0.4 16 16 WNW 17 28 29.77 1008 10 16.09344 0 0
10:58 am 10:58 Sunny 86 29.8 33 0.3 15 15 N 6 9 29.77 1008 10 16.09344 0 0
11:58 am 11:58 Sunny 86 30.2 34 1 15 15 WNW 8 13 29.77 1008 10 16.09344 0 0
12:58 pm 12:58 Mostly Cloudy 86 29.8 35 1.5 16 16 N 13 20 29.74 1007 10 16.09344 0 0
1:58 pm 13:58 Partly Cloudy 90 32 33 0.8 13 13 NNW 13 20 29.74 1007 10 16.09344 0 0
2:58 pm 14:58 Mostly Cloudy 82 27.5 35 1.8 19 19 N 3 6 29.74 1007 10 16.09344 0 0
3:58 pm 15:58 Partly Cloudy 82 27.8 37 2.6 20 20 NW 7 11 29.77 1008 10 16.09344 0 0
4:58 pm 16:58 Mostly Cloudy 80 26.5 36 2.3 21 21 S 17 28 29.8 1009 10 16.09344 0 0
6:58 pm 18:58 Mostly Cloudy 74 23.4 38 3.2 27 27 WNW 12 19 29.83 1010 10 16.09344 0 0
7:58 pm 19:58 Clear 73 22.7 38 3.1 28 28 Calm 29.8 1009 10 16.09344 0 0
8:58 pm 20:58 Clear 71 21.4 38 3.2 30 30 Calm 29.83 1010 10 16.09344 0 0
9:58 pm 21:58 Mostly Cloudy 69 20.3 36 2.1 30 30 WSW 5 7 29.8 1009 10 16.09344 0 0
10:58 pm 22:58 Clear 63 17.3 37 2.6 38 38 W 7 11 29.83 1010 10 16.09344 0 0
11:58 pm 23:58 Clear 62 16.9 37 2.8 39 39 ESE 3 6 29.83 1010 10 16.09344 0 0

Powered by AerisWeather